Time;durP1;ratioP1;P1;durP2;ratioP2;P2;SDS_P1;SDS_P2;PMS_P1;PMS_P2;Temp;Humidity;BMP_temperature;BMP_pressure;BME280_temperature;BME280_humidity;BME280_pressure;Samples;Min_cycle;Max_cycle;Signal;HPM_P1;HPM_P2
2021/01/10 00:03:58;;;;;;;10.50;4.47;;;2.10;80.40;;;;;;4957354;29;20046;-80
2021/01/10 00:09:45;;;;;;;10.73;4.70;;;2.10;80.40;;;;;;4956518;29;20123;-80
2021/01/10 00:15:33;;;;;;;12.43;5.35;;;2.10;80.40;;;;;;4956654;28;20030;-80
2021/01/10 00:27:47;;;;;;;13.07;5.15;;;2.10;80.40;;;;;;4878629;29;20032;-81
2021/01/10 00:33:35;;;;;;;12.60;5.50;;;2.10;80.40;;;;;;4956001;29;20030;-81
2021/01/10 00:39:22;;;;;;;12.15;5.07;;;2.00;80.40;;;;;;4955996;29;20070;-82
2021/01/10 00:45:12;;;;;;;13.35;5.32;;;2.00;80.60;;;;;;4956065;29;20169;-81
2021/01/10 00:50:59;;;;;;;10.95;4.90;;;2.00;80.40;;;;;;4955981;29;20051;-82
2021/01/10 01:00:50;;;;;;;11.07;4.80;;;2.00;80.40;;;;;;4956055;29;20447;-81
2021/01/10 01:06:38;;;;;;;12.00;5.05;;;2.00;80.40;;;;;;4955551;29;20540;-81
2021/01/10 01:12:26;;;;;;;14.48;5.43;;;2.00;80.50;;;;;;4955832;29;20159;-83
2021/01/10 01:18:14;;;;;;;11.95;5.07;;;1.90;80.10;;;;;;4955695;29;20078;-82
2021/01/10 01:24:01;;;;;;;11.60;5.18;;;1.90;80.20;;;;;;4955659;29;20034;-82
2021/01/10 01:29:49;;;;;;;11.35;5.00;;;1.90;80.40;;;;;;4959336;29;20078;-82
2021/01/10 01:35:39;;;;;;;11.82;4.68;;;1.90;80.20;;;;;;4959147;29;20035;-81
2021/01/10 01:41:28;;;;;;;11.48;4.82;;;1.80;80.30;;;;;;4959341;29;20038;-81
2021/01/10 01:47:20;;;;;;;9.80;4.13;;;1.90;80.70;;;;;;4959536;29;20091;-82
2021/01/10 01:53:08;;;;;;;9.43;4.25;;;1.90;80.20;;;;;;4959139;29;20065;-82
2021/01/10 02:02:53;;;;;;;11.40;4.57;;;1.90;80.40;;;;;;4959044;29;20077;-82
2021/01/10 02:08:40;;;;;;;11.70;4.10;;;1.90;80.50;;;;;;4958809;29;20054;-82
2021/01/10 02:14:32;;;;;;;12.48;5.13;;;1.90;80.20;;;;;;4958822;29;20061;-81
2021/01/10 02:20:33;;;;;;;12.93;5.00;;;1.80;80.10;;;;;;4958631;29;20050;-82
2021/01/10 02:26:21;;;;;;;13.88;5.43;;;1.70;80.00;;;;;;4958499;29;20277;-82
2021/01/10 02:32:10;;;;;;;10.55;4.05;;;1.60;80.00;;;;;;4958162;29;20031;-82
2021/01/10 02:38:17;;;;;;;11.35;5.30;;;1.50;79.80;;;;;;4958282;28;20033;-82
2021/01/10 02:44:24;;;;;;;13.55;4.97;;;1.50;79.70;;;;;;4957979;29;20099;-81
2021/01/10 02:50:17;;;;;;;11.85;5.03;;;1.40;80.10;;;;;;4957752;29;20051;-81
2021/01/10 02:56:06;;;;;;;15.07;5.80;;;1.30;79.50;;;;;;4957816;29;20502;-83
2021/01/10 03:05:57;;;;;;;8.50;3.50;;;1.20;80.20;;;;;;4957761;29;20038;-83
2021/01/10 03:11:45;;;;;;;13.68;5.13;;;1.30;80.20;;;;;;4961327;29;20047;-80
2021/01/10 03:17:38;;;;;;;9.95;3.17;;;1.20;80.10;;;;;;4957642;29;20117;-80
2021/01/10 03:23:26;;;;;;;11.02;4.43;;;1.20;79.80;;;;;;4957499;29;20082;-81
2021/01/10 03:29:14;;;;;;;11.13;4.40;;;1.00;79.30;;;;;;4957346;29;20038;-82
2021/01/10 03:35:02;;;;;;;10.82;4.72;;;0.80;79.10;;;;;;4957356;29;20130;-82
2021/01/10 03:40:50;;;;;;;14.98;5.22;;;0.50;79.10;;;;;;4957160;29;20055;-82
2021/01/10 03:46:38;;;;;;;12.98;5.03;;;0.40;79.00;;;;;;4957184;29;20074;-82
2021/01/10 03:52:25;;;;;;;11.02;4.70;;;0.30;79.50;;;;;;4956957;29;20114;-81
2021/01/10 03:58:12;;;;;;;11.45;4.55;;;0.30;79.40;;;;;;4956791;29;20078;-82
2021/01/10 04:07:54;;;;;;;12.68;4.78;;;0.10;79.10;;;;;;4956671;29;20065;-80
2021/01/10 04:13:42;;;;;;;9.60;4.00;;;-0.10;78.80;;;;;;4956589;29;20086;-82
2021/01/10 04:19:29;;;;;;;9.85;4.20;;;-0.30;78.80;;;;;;4956562;29;20031;-81
2021/01/10 04:25:18;;;;;;;11.48;4.38;;;-0.40;78.80;;;;;;4956426;29;20123;-81
2021/01/10 04:31:05;;;;;;;10.75;4.53;;;-0.60;78.70;;;;;;4956256;29;20522;-81
2021/01/10 04:36:53;;;;;;;12.20;4.28;;;-0.70;78.90;;;;;;4956244;29;20034;-81
2021/01/10 04:42:41;;;;;;;12.55;4.60;;;-0.80;78.90;;;;;;4956031;29;20050;-82
2021/01/10 04:48:28;;;;;;;9.30;3.78;;;-0.90;78.90;;;;;;4956006;29;20053;-82
2021/01/10 04:54:16;;;;;;;11.52;5.00;;;-1.00;78.80;;;;;;4956084;29;20502;-81
2021/01/10 05:00:10;;;;;;;13.27;4.60;;;-1.20;78.70;;;;;;4955873;29;20034;-82
2021/01/10 05:09:52;;;;;;;8.90;4.18;;;-1.30;78.80;;;;;;4955565;29;20050;-81
2021/01/10 05:15:42;;;;;;;11.50;4.65;;;-1.40;79.10;;;;;;4955845;29;20086;-81
2021/01/10 05:21:30;;;;;;;10.52;3.97;;;-1.30;79.40;;;;;;4955441;29;20027;-81
2021/01/10 05:27:18;;;;;;;8.75;3.55;;;-1.30;79.40;;;;;;4955673;29;20034;-82
2021/01/10 05:33:07;;;;;;;12.55;5.03;;;-1.30;79.50;;;;;;4955686;29;20514;-82
2021/01/10 05:38:55;;;;;;;10.82;4.10;;;-1.30;79.50;;;;;;4955581;29;20069;-82
2021/01/10 05:44:42;;;;;;;9.40;4.20;;;-1.20;79.60;;;;;;4955444;29;20030;-81
2021/01/10 05:50:30;;;;;;;12.43;4.28;;;-1.20;79.70;;;;;;4955210;29;20101;-80
2021/01/10 05:56:18;;;;;;;11.90;4.43;;;-1.10;79.60;;;;;;4955742;29;20022;-82
2021/01/10 06:02:06;;;;;;;13.10;5.30;;;-1.20;79.50;;;;;;4961624;29;20038;-83
2021/01/10 06:11:47;;;;;;;10.30;4.45;;;-1.20;79.60;;;;;;4955299;29;20050;-80
2021/01/10 06:17:46;;;;;;;13.55;4.78;;;-1.10;79.80;;;;;;4958716;29;20031;-82
2021/01/10 06:23:34;;;;;;;10.77;4.47;;;-1.10;79.80;;;;;;4958609;29;20407;-83
2021/01/10 06:29:25;;;;;;;12.93;4.70;;;-1.10;79.70;;;;;;4958259;29;20089;-83
2021/01/10 06:35:14;;;;;;;12.82;4.88;;;-1.00;80.10;;;;;;4958334;29;20543;-84
2021/01/10 06:41:19;;;;;;;11.48;4.45;;;-0.90;80.30;;;;;;4958331;29;20541;-82
2021/01/10 06:47:14;;;;;;;12.52;5.00;;;-0.90;80.10;;;;;;4958467;29;20038;-83
2021/01/10 06:53:11;;;;;;;10.52;3.97;;;-0.80;80.10;;;;;;4957979;29;20038;-84
2021/01/10 06:59:12;;;;;;;13.30;5.47;;;-0.70;80.10;;;;;;4957951;29;20079;-84
2021/01/10 07:05:00;;;;;;;15.48;5.75;;;-0.70;80.10;;;;;;4957983;29;20062;-84
2021/01/10 07:14:49;;;;;;;10.77;4.65;;;-0.50;80.30;;;;;;4957696;29;20046;-83
2021/01/10 07:20:42;;;;;;;11.40;4.38;;;-0.40;80.30;;;;;;4957535;29;20042;-83
2021/01/10 07:26:43;;;;;;;12.50;5.05;;;-0.40;80.40;;;;;;4956678;29;20038;-83
2021/01/10 07:32:35;;;;;;;11.30;4.75;;;-0.30;80.40;;;;;;4957455;29;20078;-85
2021/01/10 07:38:25;;;;;;;10.30;4.15;;;-0.20;80.40;;;;;;4957282;29;20093;-87
2021/01/10 07:44:13;;;;;;;12.27;5.15;;;-0.10;80.50;;;;;;4957794;29;20061;-93
2021/01/10 07:50:10;;;;;;;14.00;5.70;;;0.00;80.60;;;;;;4957898;29;20094;-93
2021/01/10 07:56:15;;;;;;;14.85;5.72;;;0.10;80.50;;;;;;4958208;29;20467;-88
2021/01/10 08:02:03;;;;;;;13.75;5.30;;;0.30;81.20;;;;;;4957292;29;20399;-88
2021/01/10 08:08:02;;;;;;;23.88;9.05;;;0.30;80.20;;;;;;4957034;29;20396;-88
2021/01/10 08:18:17;;;;;;;14.85;5.70;;;0.40;80.40;;;;;;4957084;29;20073;-88
2021/01/10 08:24:05;;;;;;;11.70;5.32;;;0.50;80.30;;;;;;4957352;29;20099;-89
2021/01/10 08:29:53;;;;;;;11.32;4.55;;;0.60;80.80;;;;;;4956336;29;20053;-87
2021/01/10 08:35:41;;;;;;;13.80;6.03;;;0.70;80.80;;;;;;4957073;28;20099;-88
2021/01/10 08:41:37;;;;;;;13.45;5.38;;;0.90;80.80;;;;;;4956958;29;20103;-88
2021/01/10 08:47:25;;;;;;;14.73;5.88;;;1.00;80.80;;;;;;4958299;29;20046;-88
2021/01/10 08:53:13;;;;;;;14.60;7.13;;;1.20;81.00;;;;;;4960290;29;20557;-88
2021/01/10 08:59:01;;;;;;;13.80;6.32;;;1.40;81.10;;;;;;4956587;29;20506;-86
2021/01/10 09:04:49;;;;;;;13.63;5.65;;;1.40;80.60;;;;;;4956015;29;20038;-86
2021/01/10 09:10:43;;;;;;;11.75;5.40;;;1.50;80.70;;;;;;4955670;29;20095;-88
2021/01/10 09:20:37;;;;;;;12.75;4.88;;;1.90;81.20;;;;;;4955799;29;20114;-87
2021/01/10 09:26:33;;;;;;;11.32;4.65;;;2.00;81.00;;;;;;4955607;29;20053;-85
2021/01/10 09:32:22;;;;;;;16.40;6.20;;;2.10;80.90;;;;;;4955996;29;20169;-88
2021/01/10 09:38:15;;;;;;;14.45;6.15;;;2.10;80.80;;;;;;4955953;29;20584;-87
2021/01/10 09:44:03;;;;;;;11.68;5.50;;;2.30;81.60;;;;;;4955678;29;20030;-83
2021/01/10 09:49:51;;;;;;;13.63;6.78;;;2.70;82.40;;;;;;4958679;29;20046;-81
2021/01/10 09:55:45;;;;;;;13.55;6.13;;;3.10;82.00;;;;;;4959581;29;20073;-88
2021/01/10 10:01:37;;;;;;;12.95;5.70;;;3.20;81.30;;;;;;4959888;29;20534;-92
2021/01/10 10:07:41;;;;;;;14.63;6.47;;;3.40;81.90;;;;;;4959146;29;20067;-87
2021/01/10 10:13:28;;;;;;;11.55;5.40;;;3.60;80.50;;;;;;4959148;29;20057;-86
2021/01/10 10:23:17;;;;;;;12.40;5.90;;;3.30;80.90;;;;;;4958872;29;20126;-87
2021/01/10 10:29:05;;;;;;;12.75;5.10;;;3.30;80.70;;;;;;4958831;29;20050;-87
2021/01/10 10:34:53;;;;;;;13.57;6.10;;;3.50;82.20;;;;;;4958698;29;20502;-87
2021/01/10 10:40:41;;;;;;;11.65;4.75;;;3.90;83.00;;;;;;4958286;29;20035;-87
2021/01/10 10:46:32;;;;;;;12.32;5.63;;;4.30;82.30;;;;;;4958468;29;20086;-87
2021/01/10 10:52:19;;;;;;;13.55;5.40;;;4.50;82.20;;;;;;4958402;29;20034;-88
2021/01/10 10:58:08;;;;;;;12.18;5.75;;;5.00;82.30;;;;;;4958719;29;20087;-88
2021/01/10 11:03:56;;;;;;;13.32;6.20;;;5.30;81.80;;;;;;4958112;29;20034;-86
2021/01/10 11:09:47;;;;;;;12.60;4.93;;;5.50;82.60;;;;;;4957904;29;20046;-86
2021/01/10 11:15:37;;;;;;;12.98;5.07;;;5.20;79.40;;;;;;4957533;29;20030;-87
2021/01/10 11:25:19;;;;;;;10.98;4.63;;;5.10;82.40;;;;;;4957927;29;20086;-87
2021/01/10 11:31:07;;;;;;;13.05;6.30;;;5.20;82.30;;;;;;4957553;29;20591;-87
2021/01/10 11:36:55;;;;;;;11.85;5.25;;;5.50;81.00;;;;;;4960619;29;20034;-86
2021/01/10 11:42:48;;;;;;;12.38;5.03;;;5.40;81.30;;;;;;4957438;29;20070;-88
2021/01/10 11:48:37;;;;;;;12.88;5.85;;;5.90;81.30;;;;;;4957227;29;20545;-87
2021/01/10 11:54:25;;;;;;;11.82;5.28;;;5.80;80.70;;;;;;4956805;29;20111;-87
2021/01/10 12:00:13;;;;;;;14.15;7.35;;;5.40;80.20;;;;;;4957383;29;20175;-85
2021/01/10 12:06:01;;;;;;;12.43;5.88;;;5.60;81.10;;;;;;4956993;29;20118;-87
2021/01/10 12:11:49;;;;;;;12.63;5.50;;;5.90;80.80;;;;;;4956807;28;20403;-87
2021/01/10 12:17:36;;;;;;;13.35;4.80;;;5.60;80.00;;;;;;4957048;29;20090;-87
2021/01/10 12:27:00;;;;;;;12.73;5.82;;;5.70;84.10;;;;;;4957034;29;20098;-87
2021/01/10 12:32:48;;;;;;;13.63;5.18;;;6.90;84.60;;;;;;4956436;29;20026;-88
2021/01/10 12:38:37;;;;;;;12.50;5.28;;;6.70;80.00;;;;;;4957012;29;20029;-89
2021/01/10 12:44:25;;;;;;;13.50;5.50;;;6.40;82.90;;;;;;4956974;29;20038;-88
2021/01/10 12:50:19;;;;;;;12.18;4.47;;;6.70;81.40;;;;;;4957911;29;20050;-88
2021/01/10 12:56:06;;;;;;;11.23;4.72;;;7.20;83.10;;;;;;4956568;29;20038;-87
2021/01/10 13:01:54;;;;;;;11.02;4.63;;;7.50;84.70;;;;;;4956110;29;20065;-88
2021/01/10 13:07:47;;;;;;;10.43;5.13;;;7.60;79.30;;;;;;4956106;29;20034;-88
2021/01/10 13:13:34;;;;;;;13.70;5.72;;;7.10;80.10;;;;;;4956202;29;20039;-88
2021/01/10 13:19:22;;;;;;;12.52;5.70;;;6.80;80.30;;;;;;4956176;29;20494;-87
2021/01/10 13:25:16;;;;;;;12.88;4.45;;;6.80;80.70;;;;;;4957733;28;20433;-83
2021/01/10 13:31:03;;;;;;;10.43;4.72;;;6.60;80.10;;;;;;4959620;29;20138;-82
2021/01/10 13:36:51;;;;;;;12.20;5.18;;;6.10;79.20;;;;;;4959597;29;20034;-82
2021/01/10 13:42:39;;;;;;;13.57;6.35;;;5.60;78.90;;;;;;4959521;29;20031;-83
2021/01/10 13:48:26;;;;;;;14.93;6.18;;;5.30;79.30;;;;;;4959384;29;20391;-82
2021/01/10 13:54:14;;;;;;;15.82;6.82;;;5.00;79.00;;;;;;4959269;29;20042;-82
2021/01/10 14:00:04;;;;;;;13.57;5.88;;;4.70;78.90;;;;;;4958839;29;20458;-82
2021/01/10 14:05:52;;;;;;;16.45;7.90;;;4.40;79.10;;;;;;4958909;29;20530;-82
2021/01/10 14:11:41;;;;;;;13.35;5.57;;;4.10;78.80;;;;;;4958892;29;20058;-82
2021/01/10 14:17:29;;;;;;;11.80;5.18;;;3.80;78.80;;;;;;4958961;29;20118;-83
2021/01/10 14:23:16;;;;;;;11.95;5.72;;;3.60;78.80;;;;;;4961136;29;20081;-83
2021/01/10 14:29:06;;;;;;;12.25;5.72;;;3.40;78.70;;;;;;4960040;29;20114;-81
2021/01/10 14:34:54;;;;;;;15.48;6.43;;;3.20;78.70;;;;;;4958241;28;20122;-81
2021/01/10 14:40:41;;;;;;;13.25;5.72;;;3.00;78.70;;;;;;4958168;29;20034;-81
2021/01/10 14:46:30;;;;;;;14.95;6.35;;;2.80;78.50;;;;;;4958302;29;20086;-83
2021/01/10 14:52:18;;;;;;;14.82;6.47;;;2.70;78.60;;;;;;4958467;29;20058;-84
2021/01/10 14:58:05;;;;;;;17.35;6.88;;;2.50;78.70;;;;;;4958936;29;20505;-82
2021/01/10 15:03:58;;;;;;;15.18;6.38;;;2.30;78.10;;;;;;4957686;29;20410;-83
2021/01/10 15:09:49;;;;;;;14.88;6.57;;;2.10;78.40;;;;;;4958034;29;20042;-81
2021/01/10 15:15:36;;;;;;;14.27;6.35;;;1.90;78.20;;;;;;4957878;29;20178;-81
2021/01/10 15:21:24;;;;;;;17.02;7.03;;;1.70;78.20;;;;;;4957591;29;20082;-81
2021/01/10 15:31:07;;;;;;;17.38;7.60;;;1.40;78.10;;;;;;4957925;29;20058;-82
2021/01/10 15:36:56;;;;;;;18.85;7.32;;;1.20;78.10;;;;;;4957311;29;20725;-82
2021/01/10 15:42:44;;;;;;;17.65;8.05;;;1.00;78.00;;;;;;4956953;29;20445;-81
2021/01/10 15:48:31;;;;;;;15.18;7.28;;;0.80;78.00;;;;;;4957153;29;20415;-82
2021/01/10 15:54:19;;;;;;;21.63;8.43;;;0.70;78.00;;;;;;4957561;29;20181;-81
2021/01/10 16:00:07;;;;;;;18.48;8.27;;;0.50;77.90;;;;;;4956931;29;20031;-81
2021/01/10 16:05:55;;;;;;;19.17;8.27;;;0.40;77.90;;;;;;4956889;29;20069;-80
2021/01/10 16:11:45;;;;;;;15.82;7.40;;;0.20;77.90;;;;;;4956797;29;20485;-81
2021/01/10 16:17:33;;;;;;;20.40;7.95;;;0.00;77.80;;;;;;4956909;29;20129;-81
2021/01/10 16:23:20;;;;;;;13.60;6.63;;;-0.10;77.80;;;;;;4956421;29;20506;-81
2021/01/10 16:32:55;;;;;;;18.05;7.50;;;-0.40;77.60;;;;;;4956654;29;20144;-82
2021/01/10 16:38:42;;;;;;;17.63;7.15;;;-0.50;77.70;;;;;;4956294;29;20502;-81
2021/01/10 16:44:33;;;;;;;15.18;6.45;;;-0.70;77.70;;;;;;4957014;29;20046;-82
2021/01/10 16:50:55;;;;;;;;;;;;;;;;;;;;;
2021/01/10 16:56:45;;;;;;;19.42;7.53;;;-0.90;78.10;;;;;;4957835;28;20034;-87
2021/01/10 17:02:32;;;;;;;18.42;7.18;;;-0.80;78.70;;;;;;4957163;29;20038;-84
2021/01/10 17:08:20;;;;;;;18.63;8.00;;;-0.90;77.70;;;;;;4958328;29;20086;-86
2021/01/10 17:14:10;;;;;;;22.08;8.90;;;-1.10;77.50;;;;;;4960705;29;20042;-86
2021/01/10 17:19:58;;;;;;;17.02;7.97;;;-1.30;77.40;;;;;;4956731;29;20042;-86
2021/01/10 17:25:45;;;;;;;16.88;7.82;;;-1.40;77.50;;;;;;4955941;29;20050;-87
2021/01/10 17:35:22;;;;;;;17.95;8.15;;;-1.60;77.40;;;;;;4956671;29;20101;-87
2021/01/10 17:41:10;;;;;;;22.52;8.65;;;-1.80;77.40;;;;;;4956307;29;20034;-89
2021/01/10 17:46:58;;;;;;;18.60;8.45;;;-1.90;77.40;;;;;;4956116;29;20596;-88
2021/01/10 17:52:45;;;;;;;20.25;10.15;;;-2.00;77.20;;;;;;4956125;29;20081;-87
2021/01/10 17:58:34;;;;;;;20.55;10.02;;;-2.10;77.30;;;;;;4956056;29;20554;-87
2021/01/10 18:04:21;;;;;;;23.58;10.65;;;-2.20;77.40;;;;;;4956009;29;20086;-80
2021/01/10 18:10:09;;;;;;;19.77;9.07;;;-2.30;77.30;;;;;;4957408;28;20054;-81
2021/01/10 18:15:57;;;;;;;19.63;9.60;;;-2.40;77.20;;;;;;4958917;29;20539;-82
2021/01/10 18:21:44;;;;;;;22.17;10.20;;;-2.50;77.30;;;;;;4959006;29;20103;-82
2021/01/10 18:27:33;;;;;;;25.80;10.40;;;-2.60;77.20;;;;;;4961016;29;20099;-82
2021/01/10 18:36:56;;;;;;;23.90;10.73;;;-2.70;77.20;;;;;;4958855;29;20536;-82
2021/01/10 18:42:43;;;;;;;22.77;11.32;;;-2.80;77.20;;;;;;4958303;29;20039;-83
2021/01/10 18:48:31;;;;;;;22.15;9.30;;;-2.80;77.40;;;;;;4958496;29;20031;-82
2021/01/10 18:54:19;;;;;;;17.77;8.70;;;-2.80;77.30;;;;;;4958420;29;20046;-81
2021/01/10 19:00:08;;;;;;;20.08;9.05;;;-3.00;77.10;;;;;;4957942;29;20030;-81
2021/01/10 19:05:55;;;;;;;22.05;9.25;;;-3.00;77.20;;;;;;4957982;29;20391;-81
2021/01/10 19:11:43;;;;;;;18.25;9.05;;;-3.00;77.20;;;;;;4957833;29;20170;-80
2021/01/10 19:17:30;;;;;;;18.55;9.52;;;-3.20;77.20;;;;;;4957341;29;20030;-80
2021/01/10 19:23:19;;;;;;;17.17;8.45;;;-3.30;77.00;;;;;;4957595;29;20042;-80
2021/01/10 19:29:07;;;;;;;20.90;9.50;;;-3.30;77.20;;;;;;4957363;29;20464;-80
2021/01/10 19:34:55;;;;;;;17.52;8.35;;;-3.40;77.10;;;;;;4955357;28;20614;-80
2021/01/10 19:40:43;;;;;;;23.05;9.10;;;-3.40;77.20;;;;;;4957249;29;20138;-81
2021/01/10 19:46:30;;;;;;;17.73;8.48;;;-3.50;77.00;;;;;;4957117;29;20035;-80
2021/01/10 19:52:18;;;;;;;21.67;9.02;;;-3.60;77.10;;;;;;4957060;29;20054;-80
2021/01/10 19:58:08;;;;;;;22.90;8.82;;;-3.60;77.00;;;;;;4959365;29;20046;-80
2021/01/10 20:03:56;;;;;;;21.80;9.93;;;-3.70;77.10;;;;;;4958672;29;20066;-81
2021/01/10 20:09:43;;;;;;;14.05;7.38;;;-3.70;77.00;;;;;;4956732;29;20065;-81
2021/01/10 20:15:31;;;;;;;18.48;8.82;;;-3.80;77.00;;;;;;4957040;29;20479;-81
2021/01/10 20:21:26;;;;;;;17.13;8.35;;;-3.90;76.90;;;;;;4957843;29;20034;-81
2021/01/10 20:27:14;;;;;;;19.75;9.07;;;-3.90;77.00;;;;;;4959527;29;20030;-82
2021/01/10 20:33:02;;;;;;;20.85;9.30;;;-4.00;76.90;;;;;;4959686;28;20050;-81
2021/01/10 20:38:49;;;;;;;17.00;8.77;;;-4.00;76.90;;;;;;4959708;29;20084;-81
2021/01/10 20:44:38;;;;;;;22.35;11.18;;;-4.10;77.10;;;;;;4958586;29;20050;-82
2021/01/10 20:50:26;;;;;;;19.30;9.07;;;-4.20;76.90;;;;;;4957391;29;20062;-81
2021/01/10 20:56:14;;;;;;;14.82;7.78;;;-4.20;76.90;;;;;;4957824;29;20038;-81
2021/01/10 21:02:05;;;;;;;19.13;7.75;;;-4.30;76.90;;;;;;4957598;29;20045;-81
2021/01/10 21:07:55;;;;;;;15.45;6.88;;;-4.30;76.90;;;;;;4958014;29;20058;-81
2021/01/10 21:13:43;;;;;;;19.00;7.85;;;-4.40;76.90;;;;;;4958367;29;20083;-81
2021/01/10 21:19:30;;;;;;;19.83;8.20;;;-4.40;76.80;;;;;;4953061;29;20038;-80
2021/01/10 21:25:18;;;;;;;15.65;6.80;;;-4.50;76.80;;;;;;4959543;29;20098;-81
2021/01/10 21:31:05;;;;;;;16.42;8.27;;;-4.50;77.00;;;;;;4956904;29;20094;-80
2021/01/10 21:40:48;;;;;;;18.70;7.35;;;-4.60;76.80;;;;;;4956951;29;20512;-80
2021/01/10 21:46:36;;;;;;;16.08;7.53;;;-4.70;76.70;;;;;;4960051;29;20098;-79
2021/01/10 21:52:23;;;;;;;18.30;7.88;;;-4.70;77.00;;;;;;4960086;29;20030;-80
2021/01/10 21:58:11;;;;;;;15.55;7.15;;;-4.70;77.00;;;;;;4960266;29;20046;-80
2021/01/10 22:03:59;;;;;;;18.10;7.55;;;-4.70;77.00;;;;;;4960766;29;20026;-80
2021/01/10 22:09:46;;;;;;;17.48;8.10;;;-4.80;76.80;;;;;;4959920;29;20058;-80
2021/01/10 22:15:34;;;;;;;19.75;7.47;;;-4.80;76.70;;;;;;4959402;29;20086;-80
2021/01/10 22:21:22;;;;;;;20.33;7.65;;;-4.90;76.70;;;;;;4958877;29;20054;-81
2021/01/10 22:27:10;;;;;;;16.00;8.68;;;-4.90;77.00;;;;;;4958685;29;20079;-81
2021/01/10 22:33:00;;;;;;;22.38;8.25;;;-4.80;77.00;;;;;;4958501;29;20057;-81
2021/01/10 22:42:23;;;;;;;17.92;7.10;;;-5.00;76.60;;;;;;4958547;29;20098;-81
2021/01/10 22:48:10;;;;;;;15.43;6.72;;;-5.10;76.60;;;;;;4962958;29;20052;-80
2021/01/10 22:53:58;;;;;;;15.57;6.68;;;-5.10;76.60;;;;;;4958399;29;20035;-81
2021/01/10 22:59:46;;;;;;;14.02;6.10;;;-5.20;76.60;;;;;;4957863;29;20077;-81
2021/01/10 23:05:33;;;;;;;17.23;7.13;;;-5.20;76.50;;;;;;4958038;29;20122;-80
2021/01/10 23:11:21;;;;;;;12.55;6.35;;;-5.30;76.60;;;;;;4957624;29;20146;-79
2021/01/10 23:17:09;;;;;;;14.63;7.43;;;-5.30;76.60;;;;;;4957764;29;20042;-80
2021/01/10 23:22:56;;;;;;;14.38;6.70;;;-5.30;76.80;;;;;;4957635;29;20035;-81
2021/01/10 23:28:44;;;;;;;14.32;7.28;;;-5.40;76.40;;;;;;4957417;29;20082;-81
2021/01/10 23:34:31;;;;;;;16.67;6.78;;;-5.40;76.50;;;;;;4957460;29;20074;-81
2021/01/10 23:43:50;;;;;;;12.52;5.47;;;-5.50;76.80;;;;;;4957208;29;20034;-80
2021/01/10 23:49:37;;;;;;;11.90;5.72;;;-5.50;76.70;;;;;;4957007;29;20043;-80
2021/01/10 23:55:25;;;;;;;9.90;5.15;;;-5.50;76.70;;;;;;4957084;29;20062;-81
